createdAt,value
2018-09-03T00:00:44.223Z,16.67
2018-09-03T00:01:44.416Z,16.66
2018-09-03T00:02:44.603Z,16.66
2018-09-03T00:03:44.800Z,16.68
2018-09-03T00:04:44.988Z,16.76
2018-09-03T00:05:45.181Z,16.67
2018-09-03T00:06:45.377Z,16.63
2018-09-03T00:07:45.562Z,16.66
2018-09-03T00:08:45.753Z,16.58
2018-09-03T00:09:45.944Z,16.60
2018-09-03T00:10:46.134Z,16.70
2018-09-03T00:11:46.329Z,16.63
2018-09-03T00:12:46.519Z,16.63
2018-09-03T00:13:46.716Z,16.60
2018-09-03T00:14:46.907Z,16.63
2018-09-03T00:15:47.097Z,16.56
2018-09-03T00:16:47.294Z,16.48
2018-09-03T00:17:47.485Z,16.58
2018-09-03T00:18:47.671Z,16.56
2018-09-03T00:19:47.869Z,16.53
2018-09-03T00:20:48.051Z,16.63
2018-09-03T00:21:48.241Z,16.52
2018-09-03T00:22:48.428Z,16.50
2018-09-03T00:23:48.622Z,16.52
2018-09-03T00:24:48.815Z,16.49
2018-09-03T00:25:49.005Z,16.49
2018-09-03T00:26:49.194Z,16.49
2018-09-03T00:27:49.384Z,16.50
2018-09-03T00:28:49.574Z,16.42
2018-09-03T00:29:49.766Z,16.41
2018-09-03T00:30:49.957Z,16.41
2018-09-03T00:31:50.146Z,16.34
2018-09-03T00:32:50.338Z,16.41
2018-09-03T00:33:50.531Z,16.33
2018-09-03T00:34:50.723Z,16.33
2018-09-03T00:35:50.910Z,16.34
2018-09-03T00:36:51.100Z,16.33
2018-09-03T00:37:51.295Z,16.38
2018-09-03T00:38:51.481Z,16.38
2018-09-03T00:39:51.677Z,16.39
2018-09-03T00:40:51.874Z,16.41
2018-09-03T00:41:52.065Z,16.35
2018-09-03T00:42:52.253Z,16.41
2018-09-03T00:43:52.465Z,16.38
2018-09-03T00:44:52.638Z,16.38
2018-09-03T00:45:52.829Z,16.33
2018-09-03T00:46:53.019Z,16.38
2018-09-03T00:47:53.210Z,16.38
2018-09-03T00:48:53.395Z,16.41
2018-09-03T00:49:53.612Z,16.42
2018-09-03T00:50:53.796Z,16.41
2018-09-03T00:51:53.992Z,16.48
2018-09-03T00:52:54.180Z,16.50
2018-09-03T00:53:54.367Z,16.41
2018-09-03T00:54:54.558Z,16.42
2018-09-03T00:55:54.754Z,16.50
2018-09-03T00:56:54.944Z,16.52
2018-09-03T00:57:55.137Z,16.43
2018-09-03T00:58:55.335Z,16.58
2018-09-03T00:59:55.516Z,16.53
2018-09-03T01:00:55.708Z,16.58
2018-09-03T01:01:55.901Z,16.57
2018-09-03T01:02:56.088Z,16.67
2018-09-03T01:03:56.281Z,16.57
2018-09-03T01:04:56.472Z,16.58
2018-09-03T01:05:56.666Z,16.58
2018-09-03T01:06:56.859Z,16.53
2018-09-03T01:07:57.050Z,16.50
2018-09-03T01:08:57.240Z,16.50
2018-09-03T01:09:57.419Z,16.53
2018-09-03T01:10:57.616Z,16.57
2018-09-03T01:11:57.809Z,16.60
2018-09-03T01:12:57.993Z,16.56
2018-09-03T01:13:58.193Z,16.56
2018-09-03T01:14:58.390Z,16.50
2018-09-03T01:15:58.584Z,16.61
2018-09-03T01:16:58.774Z,16.56
2018-09-03T01:17:58.967Z,16.58
2018-09-03T01:18:59.151Z,16.50
2018-09-03T01:19:59.345Z,16.56
2018-09-03T01:20:59.531Z,16.57
2018-09-03T01:21:59.744Z,16.53
2018-09-03T01:22:59.914Z,16.52
2018-09-03T01:24:00.116Z,16.67
2018-09-03T01:25:00.297Z,16.61
2018-09-03T01:26:00.489Z,16.64
2018-09-03T01:27:00.678Z,16.53
2018-09-03T01:28:00.870Z,16.63
2018-09-03T01:29:01.063Z,16.63
2018-09-03T01:30:01.250Z,16.70
2018-09-03T01:31:01.440Z,16.68
2018-09-03T01:32:01.631Z,16.73
2018-09-03T01:33:01.831Z,16.82
2018-09-03T01:34:02.019Z,16.73
2018-09-03T01:35:02.211Z,16.81
2018-09-03T01:36:02.407Z,16.86
2018-09-03T01:37:02.593Z,16.78
2018-09-03T01:38:02.782Z,16.79
2018-09-03T01:39:02.972Z,16.83
2018-09-03T01:40:03.158Z,16.91
2018-09-03T01:41:03.355Z,16.76
2018-09-03T01:42:03.554Z,16.76
2018-09-03T01:43:03.741Z,16.91
2018-09-03T01:44:03.937Z,16.78
2018-09-03T01:45:04.122Z,16.83
2018-09-03T01:46:04.315Z,16.86
2018-09-03T01:47:04.511Z,16.76
2018-09-03T01:48:04.711Z,16.66
2018-09-03T01:49:04.898Z,16.71
2018-09-03T01:50:05.081Z,16.75
2018-09-03T01:51:05.278Z,16.82
2018-09-03T01:52:05.465Z,16.82
2018-09-03T01:53:05.663Z,16.85
2018-09-03T01:54:05.851Z,16.91
2018-09-03T01:55:06.053Z,17.01
2018-09-03T01:56:06.242Z,17.01
2018-09-03T01:57:06.448Z,16.98
2018-09-03T01:58:06.630Z,16.85
2018-09-03T01:59:06.822Z,16.88
2018-09-03T02:00:07.010Z,16.96
2018-09-03T02:01:07.199Z,16.97
2018-09-03T02:02:07.392Z,16.98
2018-09-03T02:03:07.584Z,17.03
2018-09-03T02:04:07.776Z,17.01
2018-09-03T02:05:07.968Z,17.01
2018-09-03T02:06:08.163Z,17.22
2018-09-03T02:07:08.348Z,16.98
2018-09-03T02:08:08.539Z,17.11
2018-09-03T02:09:08.732Z,17.03
2018-09-03T02:10:08.923Z,17.00
2018-09-03T02:11:09.114Z,17.03
2018-09-03T02:12:09.303Z,17.03
2018-09-03T02:13:09.493Z,17.03
2018-09-03T02:14:09.679Z,16.98
2018-09-03T02:15:09.876Z,17.00
2018-09-03T02:16:10.059Z,17.00
2018-09-03T02:17:10.254Z,16.96
2018-09-03T02:18:10.442Z,16.96
2018-09-03T02:19:10.637Z,16.78
2018-09-03T02:20:10.833Z,16.68
2018-09-03T02:21:11.024Z,16.67
2018-09-03T02:22:11.206Z,16.66
2018-09-03T02:23:11.395Z,16.67
2018-09-03T02:24:11.589Z,16.61
2018-09-03T02:25:11.801Z,16.53
2018-09-03T02:26:11.978Z,16.56
2018-09-03T02:27:12.166Z,16.61
2018-09-03T02:28:12.357Z,16.63
2018-09-03T02:29:12.546Z,16.67
2018-09-03T02:30:12.739Z,16.64
2018-09-03T02:31:12.929Z,16.66
2018-09-03T02:32:13.119Z,16.64
2018-09-03T02:33:13.311Z,16.61
2018-09-03T02:34:13.496Z,16.53
2018-09-03T02:35:13.682Z,16.60
2018-09-03T02:36:13.874Z,16.57
2018-09-03T02:37:14.147Z,16.50
2018-09-03T02:38:14.214Z,16.43
2018-09-03T02:39:14.404Z,16.50
2018-09-03T02:40:14.596Z,16.57
2018-09-03T02:41:14.784Z,16.52
2018-09-03T02:42:14.979Z,16.53
2018-09-03T02:43:15.179Z,16.46
2018-09-03T02:44:15.361Z,16.46
2018-09-03T02:45:15.563Z,16.48
2018-09-03T02:46:15.750Z,16.38
2018-09-03T02:47:15.946Z,16.46
2018-09-03T02:48:16.139Z,16.31
2018-09-03T02:49:16.330Z,16.33
2018-09-03T02:50:16.524Z,16.33
2018-09-03T02:51:16.715Z,16.28
2018-09-03T02:52:16.912Z,16.25
2018-09-03T02:53:17.099Z,16.25
2018-09-03T02:54:17.304Z,16.21
2018-09-03T02:55:17.498Z,16.31
2018-09-03T02:56:17.688Z,16.25
2018-09-03T02:57:17.877Z,16.34
2018-09-03T02:58:18.069Z,16.33
2018-09-03T02:59:18.264Z,16.21
2018-09-03T03:00:18.454Z,16.25
2018-09-03T03:01:18.648Z,16.17
2018-09-03T03:02:18.836Z,16.30
2018-09-03T03:03:19.041Z,16.30
2018-09-03T03:04:19.217Z,16.30
2018-09-03T03:05:19.419Z,16.23
2018-09-03T03:06:19.625Z,16.15
2018-09-03T03:07:19.802Z,16.15
2018-09-03T03:08:19.994Z,16.28
2018-09-03T03:09:20.180Z,16.27
2018-09-03T03:10:20.407Z,16.35
2018-09-03T03:11:20.572Z,16.39
2018-09-03T03:12:20.753Z,16.31
2018-09-03T03:13:20.966Z,16.20
2018-09-03T03:14:21.122Z,16.31
2018-09-03T03:15:21.330Z,16.27
2018-09-03T03:16:21.503Z,16.35
2018-09-03T03:17:21.714Z,16.35
2018-09-03T03:18:21.884Z,16.30
2018-09-03T03:19:22.070Z,16.34
2018-09-03T03:20:22.267Z,16.31
2018-09-03T03:21:22.456Z,16.34
2018-09-03T03:22:22.649Z,16.34
2018-09-03T03:23:22.833Z,16.39
2018-09-03T03:24:23.031Z,16.41
2018-09-03T03:25:23.224Z,16.39
2018-09-03T03:26:23.410Z,16.24
2018-09-03T03:27:23.608Z,16.24
2018-09-03T03:28:23.788Z,16.30
2018-09-03T03:29:23.985Z,16.24
2018-09-03T03:30:24.179Z,16.30
2018-09-03T03:31:24.369Z,16.35
2018-09-03T03:32:24.554Z,16.41
2018-09-03T03:33:24.762Z,16.43
2018-09-03T03:34:24.951Z,16.46
2018-09-03T03:35:25.141Z,16.46
2018-09-03T03:36:25.340Z,16.52
2018-09-03T03:37:25.521Z,16.52
2018-09-03T03:38:25.719Z,16.57
2018-09-03T03:39:25.905Z,16.60
2018-09-03T03:40:26.099Z,16.46
2018-09-03T03:41:26.295Z,16.56
2018-09-03T03:42:26.476Z,16.56
2018-09-03T03:43:26.679Z,16.33
2018-09-03T03:44:26.857Z,16.34
2018-09-03T03:45:27.056Z,16.33
2018-09-03T03:46:27.231Z,16.31
2018-09-03T03:47:27.444Z,16.39
2018-09-03T03:48:27.635Z,16.38
2018-09-03T03:49:27.825Z,16.41
2018-09-03T03:50:28.037Z,16.34
2018-09-03T03:51:28.232Z,16.39
2018-09-03T03:52:28.419Z,16.38
2018-09-03T03:53:28.620Z,16.30
2018-09-03T03:54:28.786Z,16.23
2018-09-03T03:55:28.997Z,16.30
2018-09-03T03:56:29.185Z,16.27
2018-09-03T03:57:29.381Z,16.25
2018-09-03T03:58:29.571Z,16.30
2018-09-03T03:59:29.759Z,16.34
2018-09-03T04:00:29.948Z,16.31
2018-09-03T04:01:30.146Z,16.28
2018-09-03T04:02:30.331Z,16.31
2018-09-03T04:03:30.522Z,16.23
2018-09-03T04:04:30.735Z,16.17
2018-09-03T04:05:30.909Z,16.34
2018-09-03T04:06:31.096Z,16.39
2018-09-03T04:07:31.291Z,16.39
2018-09-03T04:08:31.485Z,16.30
2018-09-03T04:09:31.674Z,16.42
2018-09-03T04:10:31.879Z,16.39
2018-09-03T04:11:32.072Z,16.33
2018-09-03T04:12:32.261Z,16.28
2018-09-03T04:13:32.451Z,16.34
2018-09-03T04:14:32.647Z,16.41
2018-09-03T04:15:32.834Z,16.38
2018-09-03T04:16:33.029Z,16.30
2018-09-03T04:17:33.226Z,16.27
2018-09-03T04:18:33.414Z,16.27
2018-09-03T04:19:33.605Z,16.43
2018-09-03T04:20:33.792Z,16.41
2018-09-03T04:21:33.984Z,16.34
2018-09-03T04:22:34.178Z,16.41
2018-09-03T04:23:34.363Z,16.28
2018-09-03T04:24:34.555Z,16.33
2018-09-03T04:25:34.746Z,16.27
2018-09-03T04:26:34.940Z,16.35
2018-09-03T04:27:35.128Z,16.20
2018-09-03T04:28:35.360Z,16.24
2018-09-03T04:29:35.511Z,16.28
2018-09-03T04:30:35.705Z,16.20
2018-09-03T04:31:35.893Z,16.23
2018-09-03T04:32:36.085Z,16.25
2018-09-03T04:33:36.281Z,16.28
2018-09-03T04:34:36.474Z,16.30
2018-09-03T04:35:36.677Z,16.33
2018-09-03T04:36:36.854Z,16.38
2018-09-03T04:37:37.059Z,16.23
2018-09-03T04:38:37.252Z,16.23
2018-09-03T04:39:37.432Z,16.28
2018-09-03T04:40:37.620Z,16.45
2018-09-03T04:41:37.811Z,16.48
2018-09-03T04:42:38.002Z,16.56
2018-09-03T04:43:38.189Z,16.46
2018-09-03T04:44:38.807Z,16.48
2018-09-03T04:45:38.518Z,16.35
2018-09-03T04:46:38.705Z,16.35
2018-09-03T04:47:38.897Z,16.39
2018-09-03T04:48:39.089Z,16.39
2018-09-03T04:49:39.280Z,16.42
2018-09-03T04:50:39.477Z,16.43
2018-09-03T04:51:39.664Z,16.45
2018-09-03T04:52:39.865Z,16.64
2018-09-03T04:53:40.039Z,16.63
2018-09-03T04:54:40.253Z,16.57
2018-09-03T04:55:40.421Z,16.50
2018-09-03T04:56:40.619Z,16.38
2018-09-03T04:57:40.808Z,16.48
2018-09-03T04:58:41.002Z,16.39
2018-09-03T04:59:41.198Z,16.42
2018-09-03T05:00:41.385Z,16.58
2018-09-03T05:01:41.586Z,16.49
2018-09-03T05:02:41.778Z,16.52
2018-09-03T05:03:41.962Z,16.49
2018-09-03T05:04:42.155Z,16.48
2018-09-03T05:05:42.401Z,16.49
2018-09-03T05:06:42.538Z,16.48
2018-09-03T05:07:42.718Z,16.46
2018-09-03T05:08:42.905Z,16.56
2018-09-03T05:09:43.100Z,16.52
2018-09-03T05:10:43.291Z,16.57
2018-09-03T05:11:43.555Z,16.53
2018-09-03T05:12:43.674Z,16.52
2018-09-03T05:13:43.866Z,16.48
2018-09-03T05:14:44.062Z,16.53
2018-09-03T05:15:44.248Z,16.52
2018-09-03T05:16:44.438Z,16.50
2018-09-03T05:17:44.631Z,16.50
2018-09-03T05:18:44.818Z,16.57
2018-09-03T05:19:45.010Z,16.43
2018-09-03T05:20:45.204Z,16.39
2018-09-03T05:21:45.418Z,16.49
2018-09-03T05:22:45.612Z,16.50
2018-09-03T05:23:45.805Z,16.39
2018-09-03T05:24:45.997Z,16.39
2018-09-03T05:25:46.198Z,16.57
2018-09-03T05:26:46.383Z,16.60
2018-09-03T05:27:46.575Z,16.53
2018-09-03T05:28:46.765Z,16.61
2018-09-03T05:29:46.956Z,16.66
2018-09-03T05:30:47.148Z,16.64
2018-09-03T05:31:47.333Z,16.75
2018-09-03T05:32:47.527Z,16.75
2018-09-03T05:33:47.722Z,16.83
2018-09-03T05:34:47.906Z,16.83
2018-09-03T05:35:48.102Z,16.86
2018-09-03T05:36:48.288Z,16.94
2018-09-03T05:37:48.479Z,16.91
2018-09-03T05:38:48.681Z,16.97
2018-09-03T05:39:48.862Z,17.00
2018-09-03T05:40:49.053Z,17.00
2018-09-03T05:41:49.245Z,16.97
2018-09-03T05:42:49.436Z,16.96
2018-09-03T05:43:49.650Z,16.93
2018-09-03T05:44:49.820Z,16.94
2018-09-03T05:45:50.008Z,17.00
2018-09-03T05:46:50.213Z,16.93
2018-09-03T05:47:50.395Z,16.96
2018-09-03T05:48:50.591Z,16.94
2018-09-03T05:49:50.779Z,16.97
2018-09-03T05:50:50.967Z,17.11
2018-09-03T05:51:51.154Z,17.07
2018-09-03T05:52:51.349Z,17.22
2018-09-03T05:53:51.540Z,17.06
2018-09-03T05:54:51.726Z,16.97
2018-09-03T05:55:51.920Z,16.89
2018-09-03T05:56:52.109Z,17.04
2018-09-03T05:57:52.304Z,16.97
2018-09-03T05:58:52.496Z,17.01
2018-09-03T05:59:52.686Z,17.04
2018-09-03T06:00:52.880Z,17.08
2018-09-03T06:01:53.071Z,17.06
2018-09-03T06:02:53.260Z,16.93
2018-09-03T06:03:53.461Z,16.93
2018-09-03T06:04:53.766Z,17.01
2018-09-03T06:05:53.846Z,17.04
2018-09-03T06:06:54.042Z,16.97
2018-09-03T06:07:54.246Z,17.14
2018-09-03T06:08:54.433Z,17.12
2018-09-03T06:09:54.626Z,17.08
2018-09-03T06:10:54.868Z,17.04
2018-09-03T06:11:55.026Z,17.06
2018-09-03T06:12:55.219Z,17.03
2018-09-03T06:13:55.405Z,17.12
2018-09-03T06:14:55.597Z,17.22
2018-09-03T06:15:55.787Z,17.31
2018-09-03T06:16:55.979Z,17.30
2018-09-03T06:17:56.209Z,17.25
2018-09-03T06:18:56.356Z,17.30
2018-09-03T06:19:56.551Z,17.28
2018-09-03T06:20:56.739Z,17.37
2018-09-03T06:21:56.929Z,17.48
2018-09-03T06:22:57.125Z,17.54
2018-09-03T06:23:57.316Z,17.56
2018-09-03T06:24:57.510Z,17.62
2018-09-03T06:25:57.731Z,17.54
2018-09-03T06:26:57.885Z,17.54
2018-09-03T06:27:58.079Z,17.36
2018-09-03T06:28:58.306Z,17.21
2018-09-03T06:29:58.468Z,17.11
2018-09-03T06:30:58.658Z,17.08
2018-09-03T06:31:58.855Z,17.31
2018-09-03T06:32:59.083Z,17.28
2018-09-03T06:33:59.244Z,17.37
2018-09-03T06:34:59.421Z,17.40
2018-09-03T06:35:59.678Z,17.62
2018-09-03T06:36:59.800Z,17.63
2018-09-03T06:37:59.996Z,17.79
2018-09-03T06:39:00.195Z,17.79
2018-09-03T06:40:00.380Z,17.96
2018-09-03T06:41:00.571Z,17.93
2018-09-03T06:42:00.769Z,17.82
2018-09-03T06:43:00.952Z,17.81
2018-09-03T06:44:01.150Z,17.78
2018-09-03T06:45:01.349Z,17.81
2018-09-03T06:46:01.537Z,17.75
2018-09-03T06:47:01.727Z,17.84
2018-09-03T06:48:01.960Z,17.93
2018-09-03T06:49:02.122Z,17.96
2018-09-03T06:50:02.327Z,18.10
2018-09-03T06:51:02.511Z,18.08
2018-09-03T06:52:02.699Z,18.29
2018-09-03T06:53:02.898Z,18.29
2018-09-03T06:54:03.085Z,18.27
2018-09-03T06:55:03.278Z,18.35
2018-09-03T06:56:03.468Z,18.29
2018-09-03T06:57:03.665Z,18.27
2018-09-03T06:58:03.854Z,18.32
2018-09-03T06:59:04.046Z,18.17
2018-09-03T07:00:04.251Z,17.96
2018-09-03T07:01:04.442Z,17.87
2018-09-03T07:02:04.632Z,18.00
2018-09-03T07:03:04.818Z,17.92
2018-09-03T07:04:05.007Z,17.87
2018-09-03T07:05:05.201Z,17.64
2018-09-03T07:06:05.400Z,17.66
2018-09-03T07:07:05.594Z,17.49
2018-09-03T07:08:05.784Z,17.62
2018-09-03T07:09:05.970Z,17.71
2018-09-03T07:10:06.167Z,17.75
2018-09-03T07:11:06.352Z,17.89
2018-09-03T07:12:06.545Z,17.97
2018-09-03T07:13:06.733Z,18.08
2018-09-03T07:14:06.948Z,18.15
2018-09-03T07:15:07.139Z,18.27
2018-09-03T07:16:07.318Z,18.26
2018-09-03T07:17:07.523Z,18.39
2018-09-03T07:18:07.700Z,18.39
2018-09-03T07:19:07.890Z,18.44
2018-09-03T07:20:08.089Z,18.48
2018-09-03T07:21:08.279Z,18.67
2018-09-03T07:22:08.466Z,18.63
2018-09-03T07:23:08.659Z,18.75
2018-09-03T07:24:08.852Z,18.76
2018-09-03T07:25:09.040Z,18.73
2018-09-03T07:26:09.236Z,18.54
2018-09-03T07:27:09.429Z,18.62
2018-09-03T07:28:09.609Z,18.50
2018-09-03T07:29:09.813Z,18.48
2018-09-03T07:30:10.030Z,18.45
2018-09-03T07:31:10.214Z,18.47
2018-09-03T07:32:10.454Z,18.55
2018-09-03T07:33:10.598Z,18.44
2018-09-03T07:34:10.791Z,18.54
2018-09-03T07:35:11.025Z,18.57
2018-09-03T07:36:11.174Z,18.42
2018-09-03T07:37:11.367Z,18.30
2018-09-03T07:38:11.575Z,18.45
2018-09-03T07:39:11.765Z,18.29
2018-09-03T07:40:11.961Z,18.29
2018-09-03T07:41:12.151Z,18.25
2018-09-03T07:42:12.341Z,18.25
2018-09-03T07:43:12.538Z,18.14
2018-09-03T07:44:12.760Z,18.12
2018-09-03T07:45:12.927Z,18.21
2018-09-03T07:46:13.123Z,18.10
2018-09-03T07:47:13.317Z,18.14
2018-09-03T07:48:13.512Z,18.23
2018-09-03T07:49:13.702Z,18.08
2018-09-03T07:50:13.896Z,18.12
2018-09-03T07:51:14.091Z,18.10
2018-09-03T07:52:14.282Z,17.95
2018-09-03T07:53:14.475Z,18.03
2018-09-03T07:54:14.669Z,18.11
2018-09-03T07:55:14.862Z,18.20
2018-09-03T07:56:15.074Z,18.25
2018-09-03T07:57:15.248Z,18.36
2018-09-03T07:58:15.440Z,18.33
2018-09-03T07:59:15.654Z,18.41
2018-09-03T08:00:15.833Z,18.66
2018-09-03T08:01:16.094Z,18.51
2018-09-03T08:02:16.218Z,18.65
2018-09-03T08:03:16.412Z,18.63
2018-09-03T08:04:16.608Z,18.63
2018-09-03T08:05:16.802Z,18.54
2018-09-03T08:06:16.998Z,18.58
2018-09-03T08:07:17.242Z,18.58
2018-09-03T08:08:17.378Z,18.58
2018-09-03T08:09:17.570Z,18.65
2018-09-03T08:10:17.775Z,18.60
2018-09-03T08:11:17.960Z,18.63
2018-09-03T08:12:18.148Z,18.57
2018-09-03T08:13:18.342Z,18.57
2018-09-03T08:14:18.530Z,18.62
2018-09-03T08:15:18.732Z,18.65
2018-09-03T08:16:18.933Z,18.67
2018-09-03T08:17:19.122Z,18.76
2018-09-03T08:18:19.316Z,18.82
2018-09-03T08:19:19.512Z,18.75
2018-09-03T08:20:19.708Z,18.78
2018-09-03T08:21:19.901Z,18.91
2018-09-03T08:22:20.090Z,18.91
2018-09-03T08:23:20.283Z,18.99
2018-09-03T08:24:20.480Z,19.06
2018-09-03T08:25:20.676Z,19.06
2018-09-03T08:26:20.865Z,19.11
2018-09-03T08:27:21.057Z,19.13
2018-09-03T08:28:21.257Z,19.02
2018-09-03T08:29:21.456Z,19.16
2018-09-03T08:30:21.665Z,19.07
2018-09-03T08:31:21.840Z,18.95
2018-09-03T08:32:22.032Z,18.92
2018-09-03T08:33:22.216Z,18.81
2018-09-03T08:34:22.413Z,18.62
2018-09-03T08:35:22.602Z,18.67
2018-09-03T08:36:22.798Z,18.73
2018-09-03T08:37:22.993Z,18.62
2018-09-03T08:38:23.224Z,18.52
2018-09-03T08:39:23.376Z,18.58
2018-09-03T08:40:23.569Z,18.50
2018-09-03T08:41:23.761Z,18.58
2018-09-03T08:42:23.955Z,18.58
2018-09-03T08:43:24.150Z,18.57
2018-09-03T08:44:24.339Z,18.58
2018-09-03T08:45:24.534Z,18.63
2018-09-03T08:46:25.687Z,18.69
2018-09-03T08:47:24.892Z,18.70
2018-09-03T08:48:25.083Z,18.63
2018-09-03T08:49:25.284Z,18.72
2018-09-03T08:50:25.484Z,18.76
2018-09-03T08:51:25.669Z,18.84
2018-09-03T08:52:25.862Z,18.94
2018-09-03T08:53:26.061Z,19.06
2018-09-03T08:54:26.258Z,19.13
2018-09-03T08:55:26.455Z,19.26
2018-09-03T08:56:26.643Z,19.28
2018-09-03T08:57:26.831Z,19.46
2018-09-03T08:58:27.030Z,19.33
2018-09-03T08:59:27.220Z,19.22
2018-09-03T09:00:27.409Z,18.82
2018-09-03T09:01:27.609Z,19.04
2018-09-03T09:02:27.798Z,19.16
2018-09-03T09:03:27.990Z,19.28
2018-09-03T09:04:28.181Z,19.33
2018-09-03T09:05:28.388Z,19.37
2018-09-03T09:06:28.581Z,19.26
2018-09-03T09:07:28.778Z,19.00
2018-09-03T09:08:28.971Z,18.60
2018-09-03T09:09:29.164Z,18.66
2018-09-03T09:10:29.362Z,18.80
2018-09-03T09:11:29.553Z,18.65
2018-09-03T09:12:29.747Z,18.82
2018-09-03T09:13:29.934Z,19.10
2018-09-03T09:14:30.127Z,19.33
2018-09-03T09:15:30.319Z,19.33
2018-09-03T09:16:30.508Z,19.36
2018-09-03T09:17:30.768Z,19.06
2018-09-03T09:18:30.896Z,19.08
2018-09-03T09:19:31.085Z,19.16
2018-09-03T09:20:31.281Z,19.31
2018-09-03T09:21:31.471Z,19.16
2018-09-03T09:22:31.659Z,18.99
2018-09-03T09:23:31.848Z,19.04
2018-09-03T09:24:32.070Z,19.06
2018-09-03T09:25:32.239Z,18.94
2018-09-03T09:26:32.431Z,19.10
2018-09-03T09:27:32.622Z,19.08
2018-09-03T09:28:32.817Z,18.85
2018-09-03T09:29:33.006Z,18.78
2018-09-03T09:30:33.199Z,18.51
2018-09-03T09:31:33.408Z,18.39
2018-09-03T09:32:33.589Z,18.32
2018-09-03T09:33:33.785Z,18.35
2018-09-03T09:34:33.966Z,18.36
2018-09-03T09:35:34.164Z,18.41
2018-09-03T09:36:34.365Z,18.33
2018-09-03T09:37:34.549Z,18.39
2018-09-03T09:38:34.744Z,18.44
2018-09-03T09:39:34.934Z,18.44
2018-09-03T09:40:35.138Z,18.48
2018-09-03T09:41:35.334Z,18.48
2018-09-03T09:42:35.532Z,18.57
2018-09-03T09:43:35.733Z,18.63
2018-09-03T09:44:35.938Z,18.63
2018-09-03T09:45:36.128Z,18.42
2018-09-03T09:46:36.316Z,18.37
2018-09-03T09:47:36.507Z,18.27
2018-09-03T09:48:36.700Z,18.36
2018-09-03T09:49:36.899Z,18.17
2018-09-03T09:50:37.089Z,18.14
2018-09-03T09:51:37.299Z,18.17
2018-09-03T09:52:37.483Z,18.18
2018-09-03T09:53:37.674Z,18.18
2018-09-03T09:54:37.868Z,18.26
2018-09-03T09:55:38.063Z,18.20
2018-09-03T09:56:38.252Z,18.32
2018-09-03T09:57:38.440Z,18.23
2018-09-03T09:58:38.642Z,18.18
2018-09-03T09:59:38.834Z,18.20
2018-09-03T10:00:39.049Z,18.12
2018-09-03T10:01:39.215Z,18.12
2018-09-03T10:02:39.419Z,18.12
2018-09-03T10:03:39.615Z,18.17
2018-09-03T10:04:39.807Z,18.10
2018-09-03T10:05:40.002Z,18.17
2018-09-03T10:06:40.189Z,18.15
2018-09-03T10:07:40.383Z,18.15
2018-09-03T10:08:40.573Z,18.20
2018-09-03T10:09:40.765Z,18.26
2018-09-03T10:10:40.964Z,18.48
2018-09-03T10:11:41.154Z,18.33
2018-09-03T10:12:41.347Z,18.17
2018-09-03T10:13:41.540Z,18.30
2018-09-03T10:14:41.736Z,18.26
2018-09-03T10:15:41.927Z,18.25
2018-09-03T10:16:42.117Z,18.37
2018-09-03T10:17:42.317Z,18.42
2018-09-03T10:18:42.507Z,18.37
2018-09-03T10:19:42.696Z,18.32
2018-09-03T10:20:42.892Z,18.54
2018-09-03T10:21:43.084Z,18.62
2018-09-03T10:22:43.277Z,18.60
2018-09-03T10:23:43.470Z,18.57
2018-09-03T10:24:43.659Z,18.72
2018-09-03T10:25:43.848Z,18.72
2018-09-03T10:26:44.045Z,18.91
2018-09-03T10:27:44.237Z,19.02
2018-09-03T10:28:44.434Z,19.00
2018-09-03T10:29:44.630Z,19.14
2018-09-03T10:30:44.823Z,19.31
2018-09-03T10:31:45.017Z,19.36
2018-09-03T10:32:45.203Z,19.48
2018-09-03T10:33:45.392Z,19.44
2018-09-03T10:34:45.589Z,19.51
2018-09-03T10:35:45.777Z,19.51
2018-09-03T10:36:45.966Z,19.36
2018-09-03T10:37:46.159Z,19.37
2018-09-03T10:38:46.350Z,19.16
2018-09-03T10:39:46.544Z,19.22
2018-09-03T10:40:46.739Z,19.29
2018-09-03T10:41:46.929Z,19.13
2018-09-03T10:42:47.127Z,19.06
2018-09-03T10:43:47.316Z,19.16
2018-09-03T10:44:47.505Z,19.28
2018-09-03T10:45:47.699Z,19.10
2018-09-03T10:46:47.885Z,19.21
2018-09-03T10:47:48.083Z,19.31
2018-09-03T10:48:48.276Z,19.51
2018-09-03T10:49:48.469Z,19.48
2018-09-03T10:50:48.659Z,19.63
2018-09-03T10:51:48.846Z,19.69
2018-09-03T10:52:49.044Z,19.92
2018-09-03T10:53:49.243Z,20.02
2018-09-03T10:54:49.433Z,20.06
2018-09-03T10:55:49.630Z,20.03
2018-09-03T10:56:49.825Z,19.92
2018-09-03T10:57:50.018Z,19.98
2018-09-03T10:58:50.214Z,19.88
2018-09-03T10:59:50.404Z,19.54
2018-09-03T11:00:50.597Z,19.50
2018-09-03T11:01:50.795Z,19.73
2018-09-03T11:02:50.985Z,19.68
2018-09-03T11:03:51.182Z,19.51
2018-09-03T11:04:51.377Z,19.51
2018-09-03T11:05:51.577Z,19.73
2018-09-03T11:06:51.765Z,19.80
2018-09-03T11:07:51.962Z,19.74
2018-09-03T11:08:52.158Z,19.69
2018-09-03T11:09:52.345Z,19.48
2018-09-03T11:10:52.537Z,19.25
2018-09-03T11:11:52.744Z,19.08
2018-09-03T11:12:52.935Z,19.02
2018-09-03T11:13:53.124Z,18.92
2018-09-03T11:14:53.312Z,19.00
2018-09-03T11:15:53.522Z,18.99
2018-09-03T11:16:53.712Z,18.85
2018-09-03T11:17:53.907Z,18.90
2018-09-03T11:18:54.101Z,18.82
2018-09-03T11:19:54.337Z,18.69
2018-09-03T11:20:54.477Z,18.75
2018-09-03T11:21:54.675Z,18.65
2018-09-03T11:22:54.882Z,18.80
2018-09-03T11:23:55.076Z,18.92
2018-09-03T11:24:55.275Z,19.06
2018-09-03T11:25:55.463Z,19.26
2018-09-03T11:26:55.680Z,19.32
2018-09-03T11:27:55.848Z,19.26
2018-09-03T11:28:56.038Z,19.29
2018-09-03T11:29:56.224Z,19.29
2018-09-03T11:30:56.420Z,19.25
2018-09-03T11:31:56.616Z,19.23
2018-09-03T11:32:56.820Z,19.36
2018-09-03T11:33:57.010Z,19.32
2018-09-03T11:34:57.255Z,19.11
2018-09-03T11:35:57.412Z,19.21
2018-09-03T11:36:57.604Z,19.19
2018-09-03T11:37:57.797Z,19.28
2018-09-03T11:38:57.992Z,19.23
2018-09-03T11:39:58.176Z,19.25
2018-09-03T11:40:58.410Z,19.18
2018-09-03T11:41:58.569Z,19.13
2018-09-03T11:42:58.769Z,19.14
2018-09-03T11:43:58.955Z,19.26
2018-09-03T11:44:59.144Z,19.32
2018-09-03T11:45:59.338Z,19.26
2018-09-03T11:46:59.549Z,19.32
2018-09-03T11:47:59.734Z,19.39
2018-09-03T11:48:59.935Z,19.48
2018-09-03T11:50:00.129Z,19.48
2018-09-03T11:51:00.319Z,19.33
2018-09-03T11:52:00.512Z,19.46
2018-09-03T11:53:00.704Z,19.32
2018-09-03T11:54:00.895Z,19.43
2018-09-03T11:55:01.106Z,19.50
2018-09-03T11:56:01.290Z,19.56
2018-09-03T11:57:01.481Z,19.59
2018-09-03T11:58:01.669Z,19.59
2018-09-03T11:59:01.869Z,19.62
2018-09-03T12:00:02.060Z,19.73
2018-09-03T12:01:02.250Z,19.66
2018-09-03T12:02:02.476Z,19.73
2018-09-03T12:03:02.639Z,19.66
2018-09-03T12:04:02.832Z,19.54
2018-09-03T12:05:03.033Z,19.37
2018-09-03T12:06:03.219Z,19.37
2018-09-03T12:07:03.423Z,19.48
2018-09-03T12:08:03.616Z,19.61
2018-09-03T12:09:03.814Z,19.55
2018-09-03T12:10:04.007Z,19.56
2018-09-03T12:11:04.211Z,19.63
2018-09-03T12:12:04.407Z,19.66
2018-09-03T12:13:04.594Z,19.71
2018-09-03T12:14:04.786Z,19.74
2018-09-03T12:15:04.976Z,19.66
2018-09-03T12:16:05.169Z,19.47
2018-09-03T12:17:05.361Z,19.54
2018-09-03T12:18:05.553Z,19.59
2018-09-03T12:19:05.752Z,19.58
2018-09-03T12:20:05.946Z,19.66
2018-09-03T12:21:06.199Z,19.71
2018-09-03T12:22:06.325Z,19.74
2018-09-03T12:23:06.527Z,19.78
2018-09-03T12:24:06.714Z,19.69
2018-09-03T12:25:06.903Z,19.69
2018-09-03T12:26:07.097Z,19.58
2018-09-03T12:27:07.285Z,19.71
2018-09-03T12:28:07.488Z,19.74
2018-09-03T12:29:07.691Z,19.76
2018-09-03T12:30:07.880Z,19.81
2018-09-03T12:31:08.091Z,19.77
2018-09-03T12:32:08.283Z,19.80
2018-09-03T12:33:08.458Z,19.68
2018-09-03T12:34:08.646Z,19.91
2018-09-03T12:35:08.839Z,19.95
2018-09-03T12:36:09.029Z,19.92
2018-09-03T12:37:09.229Z,19.99
2018-09-03T12:38:09.417Z,20.08
2018-09-03T12:39:09.618Z,20.03
2018-09-03T12:40:09.816Z,19.92
2018-09-03T12:41:10.009Z,19.78
2018-09-03T12:42:10.206Z,19.68
2018-09-03T12:43:10.405Z,19.68
2018-09-03T12:44:10.601Z,19.55
2018-09-03T12:45:10.793Z,19.36
2018-09-03T12:46:10.983Z,19.39
2018-09-03T12:47:11.179Z,19.47
2018-09-03T12:48:11.375Z,19.48
2018-09-03T12:49:11.584Z,19.37
2018-09-03T12:50:11.815Z,19.37
2018-09-03T12:51:12.038Z,19.32
2018-09-03T12:52:12.174Z,19.31
2018-09-03T12:53:12.374Z,19.16
2018-09-03T12:54:12.572Z,19.23
2018-09-03T12:55:12.758Z,19.37